Time;durP1;ratioP1;P1;durP2;ratioP2;P2;SDS_P1;SDS_P2;PMS_P1;PMS_P2;Temp;Humidity;BMP_temperature;BMP_pressure;BME280_temperature;BME280_humidity;BME280_pressure;Samples;Min_cycle;Max_cycle;Signal;HPM_P1;HPM_P2
2022/01/21 00:00:18;;;;;;;26.35;2.90;;;2.00;99.90;;;;;;4858606;29;20052;-86
2022/01/21 00:02:44;;;;;;;23.15;2.92;;;2.10;99.90;;;;;;4859453;29;20041;-86
2022/01/21 00:05:10;;;;;;;26.92;3.70;;;2.90;99.90;;;;;;4875273;29;20048;-85
2022/01/21 00:07:36;;;;;;;24.48;3.70;;;2.30;99.90;;;;;;4874462;29;20052;-85
2022/01/21 00:10:02;;;;;;;22.92;3.28;;;2.50;99.90;;;;;;4860064;29;20413;-85
2022/01/21 00:12:30;;;;;;;32.88;3.20;;;2.60;99.90;;;;;;4874994;29;20048;-85
2022/01/21 00:14:55;;;;;;;19.50;3.25;;;2.70;99.90;;;;;;4874871;29;20056;-86
2022/01/21 00:17:23;;;;;;;25.05;3.72;;;2.80;99.90;;;;;;4874795;29;20112;-85
2022/01/21 00:19:52;;;;;;;22.85;3.08;;;2.90;99.90;;;;;;4859528;29;20127;-85
2022/01/21 00:30:31;;;;;;;5.32;0.98;;;2.80;99.90;;;;;;4872027;29;20099;-87
2022/01/21 00:32:57;;;;;;;17.83;1.95;;;2.80;99.90;;;;;;4856447;29;20136;-85
2022/01/21 00:35:23;;;;;;;6.20;1.15;;;3.40;99.90;;;;;;4839721;29;20144;-87
2022/01/21 00:37:49;;;;;;;5.53;1.38;;;2.80;99.90;;;;;;4856553;29;20136;-88
2022/01/21 00:40:21;;;;;;;14.45;1.60;;;2.90;99.90;;;;;;4841290;29;20056;-86
2022/01/21 00:42:55;;;;;;;12.73;1.35;;;2.80;99.90;;;;;;4855901;29;20140;-87
2022/01/21 00:45:21;;;;;;;14.77;1.42;;;2.70;99.90;;;;;;4840756;29;20041;-88
2022/01/21 00:47:48;;;;;;;13.63;1.88;;;2.50;99.90;;;;;;4840978;29;20049;-88
2022/01/21 00:50:15;;;;;;;14.85;2.13;;;2.40;99.90;;;;;;4840471;29;20495;-87
2022/01/21 00:52:41;;;;;;;15.43;1.85;;;2.30;99.90;;;;;;4856753;29;20051;-88
2022/01/21 00:55:08;;;;;;;12.65;1.98;;;2.20;99.90;;;;;;4856482;29;20045;-87
2022/01/21 00:57:34;;;;;;;10.77;1.52;;;2.20;99.90;;;;;;4856032;29;20101;-87
2022/01/21 00:59:59;;;;;;;14.73;1.52;;;3.40;99.90;;;;;;4857881;29;20459;-87
2022/01/21 01:02:25;;;;;;;9.85;1.63;;;2.20;99.90;;;;;;4858341;29;20052;-86
2022/01/21 01:04:51;;;;;;;14.48;2.22;;;2.20;99.90;;;;;;4844735;29;20041;-86
2022/01/21 01:07:16;;;;;;;13.48;2.33;;;2.20;99.90;;;;;;4860028;29;20070;-85
2022/01/21 01:09:43;;;;;;;13.88;2.00;;;2.30;99.90;;;;;;4858748;29;20432;-86
2022/01/21 01:12:20;;;;;;;17.45;2.60;;;3.20;99.90;;;;;;4844557;29;20049;-86
2022/01/21 01:20:14;;;;;;;20.80;2.92;;;3.30;99.90;;;;;;4859539;29;20425;-87
2022/01/21 01:22:56;;;;;;;19.70;2.42;;;3.30;99.90;;;;;;4860160;29;20193;-88
2022/01/21 01:28:07;;;;;;;15.35;2.13;;;2.20;99.90;;;;;;4859718;29;20166;-87
2022/01/21 01:30:33;;;;;;;22.48;2.97;;;2.20;99.90;;;;;;4859731;29;20052;-87
2022/01/21 01:33:01;;;;;;;30.65;3.35;;;2.20;99.90;;;;;;4859598;29;20442;-87
2022/01/21 01:35:31;;;;;;;14.98;2.25;;;2.10;99.90;;;;;;4859464;29;20057;-87
2022/01/21 01:40:44;;;;;;;17.13;2.60;;;2.00;99.90;;;;;;4859481;29;20105;-86
2022/01/21 01:49:25;;;;;;;19.85;2.17;;;2.00;99.90;;;;;;4859847;29;20045;-86
2022/01/21 01:51:37;;;;;;;20.30;2.30;;;1.80;99.90;;;;;;4857693;29;20177;-85
2022/01/21 01:54:11;;;;;;;17.90;2.90;;;1.80;99.90;;;;;;4859623;29;20171;-86
2022/01/21 01:56:41;;;;;;;29.98;3.58;;;1.70;99.90;;;;;;4859392;29;20106;-86
2022/01/21 01:59:07;;;;;;;20.73;2.88;;;1.70;99.90;;;;;;4858639;29;20055;-86
2022/01/21 02:01:33;;;;;;;25.42;2.95;;;1.80;99.90;;;;;;4858652;29;20053;-86
2022/01/21 02:03:59;;;;;;;21.42;2.17;;;2.10;99.90;;;;;;4859041;29;20049;-88
2022/01/21 02:13:59;;;;;;;8.18;1.70;;;1.80;99.90;;;;;;4849911;29;20141;-90
2022/01/21 02:17:14;;;;;;;9.57;1.00;;;1.70;99.90;;;;;;4822610;29;20096;-88
2022/01/21 02:22:22;;;;;;;14.18;1.70;;;0.90;99.90;;;;;;4873084;29;20405;-88
2022/01/21 02:27:13;;;;;;;9.30;1.00;;;1.60;99.90;;;;;;4878082;29;20635;-88
2022/01/21 02:30:02;;;;;;;9.93;1.42;;;1.70;99.90;;;;;;4878372;29;20508;-88
2022/01/21 02:32:28;;;;;;;10.60;1.55;;;1.40;99.90;;;;;;4877206;29;20048;-88
2022/01/21 02:35:06;;;;;;;12.07;1.40;;;1.70;99.90;;;;;;4877479;29;20047;-87
2022/01/21 02:37:31;;;;;;;12.27;1.38;;;1.50;99.90;;;;;;4877230;29;20485;-87
2022/01/21 02:39:57;;;;;;;11.95;1.45;;;1.40;99.90;;;;;;4877517;29;20049;-86
2022/01/21 02:42:22;;;;;;;12.90;1.52;;;1.90;99.90;;;;;;4876365;29;20056;-86
2022/01/21 02:44:48;;;;;;;13.43;1.55;;;1.50;99.90;;;;;;4877919;29;20447;-86
2022/01/21 02:47:23;;;;;;;9.95;1.33;;;1.50;99.90;;;;;;4876978;29;20147;-87
2022/01/21 02:49:48;;;;;;;14.95;1.45;;;1.50;99.90;;;;;;4877166;29;20056;-87
2022/01/21 02:52:18;;;;;;;18.02;1.80;;;1.50;99.90;;;;;;4876846;29;20036;-87
2022/01/21 02:54:44;;;;;;;9.02;1.58;;;1.50;99.90;;;;;;4876772;29;20544;-87
2022/01/21 02:57:09;;;;;;;22.02;2.58;;;1.50;99.90;;;;;;4877320;29;20041;-86
2022/01/21 02:59:36;;;;;;;16.20;1.90;;;2.40;99.90;;;;;;4876770;29;20055;-87
2022/01/21 03:02:08;;;;;;;17.55;1.67;;;1.60;99.90;;;;;;4876115;29;20056;-87
2022/01/21 03:07:01;;;;;;;26.95;1.98;;;2.30;99.90;;;;;;4876538;29;20096;-87
2022/01/21 03:09:27;;;;;;;14.90;1.60;;;1.80;99.90;;;;;;4875541;29;20048;-87
2022/01/21 03:11:52;;;;;;;13.20;2.13;;;1.80;99.90;;;;;;4860794;29;20112;-87
2022/01/21 03:14:31;;;;;;;9.35;1.30;;;1.20;99.90;;;;;;4858089;29;20051;-87
2022/01/21 03:16:56;;;;;;;12.25;1.88;;;2.20;99.90;;;;;;4857197;29;20053;-87
2022/01/21 03:19:22;;;;;;;12.93;1.20;;;1.90;99.90;;;;;;4857880;29;20052;-87
2022/01/21 03:21:48;;;;;;;11.95;1.55;;;1.90;99.90;;;;;;4857557;29;20040;-87
2022/01/21 03:24:22;;;;;;;10.25;1.17;;;2.00;99.90;;;;;;4856895;29;20521;-87
2022/01/21 03:26:48;;;;;;;6.90;1.27;;;2.70;99.90;;;;;;4858083;29;20052;-87
2022/01/21 03:29:14;;;;;;;9.05;1.30;;;1.90;99.90;;;;;;4857854;29;20048;-87
2022/01/21 03:31:39;;;;;;;12.25;2.03;;;1.90;99.90;;;;;;4857147;29;20061;-86
2022/01/21 03:34:05;;;;;;;14.48;1.75;;;1.90;99.90;;;;;;4858236;29;20333;-87
2022/01/21 03:36:40;;;;;;;15.13;1.67;;;1.90;99.90;;;;;;4856742;29;20064;-86
2022/01/21 03:39:06;;;;;;;17.55;1.90;;;1.80;99.90;;;;;;4857682;29;20045;-86
2022/01/21 03:41:32;;;;;;;13.02;1.50;;;1.80;99.90;;;;;;4857150;29;20048;-86
2022/01/21 03:43:58;;;;;;;12.55;1.13;;;2.50;99.90;;;;;;4856878;29;20049;-86
2022/01/21 03:46:23;;;;;;;11.18;1.17;;;1.70;99.90;;;;;;4856510;29;20056;-86
2022/01/21 03:48:50;;;;;;;9.70;1.40;;;1.60;99.90;;;;;;4857038;29;20131;-86
2022/01/21 03:51:19;;;;;;;14.48;1.35;;;1.60;99.90;;;;;;4855068;29;20060;-85
2022/01/21 03:53:46;;;;;;;6.05;1.10;;;1.50;99.90;;;;;;4857278;29;20510;-85
2022/01/21 03:56:14;;;;;;;15.27;1.30;;;1.40;99.90;;;;;;4857045;29;20087;-85
2022/01/21 03:58:40;;;;;;;14.63;1.55;;;1.40;99.90;;;;;;4871806;29;20053;-85
2022/01/21 04:01:06;;;;;;;12.75;1.30;;;1.30;99.90;;;;;;4857303;29;20091;-85
2022/01/21 04:03:32;;;;;;;12.05;1.65;;;1.40;99.90;;;;;;4856100;29;20136;-85
2022/01/21 04:05:58;;;;;;;13.90;1.20;;;1.40;99.90;;;;;;4840719;29;20056;-85
2022/01/21 04:08:23;;;;;;;12.52;1.52;;;2.10;99.90;;;;;;4840974;29;20052;-85
2022/01/21 04:10:49;;;;;;;10.55;1.55;;;2.30;99.90;;;;;;4857143;29;20049;-85
2022/01/21 04:13:18;;;;;;;11.38;1.55;;;1.50;99.90;;;;;;4855973;29;20052;-86
2022/01/21 04:15:47;;;;;;;12.70;1.63;;;1.50;99.90;;;;;;4857360;29;20053;-85
2022/01/21 04:18:14;;;;;;;10.50;1.48;;;1.60;99.90;;;;;;4856439;29;20049;-86
2022/01/21 04:20:40;;;;;;;18.55;1.63;;;1.60;99.90;;;;;;4855839;29;20049;-85
2022/01/21 04:23:06;;;;;;;15.23;2.08;;;1.70;99.90;;;;;;4857138;29;20167;-86
2022/01/21 04:25:31;;;;;;;14.98;1.92;;;1.60;99.90;;;;;;4856768;29;20208;-86
2022/01/21 04:27:57;;;;;;;13.52;2.25;;;1.60;99.90;;;;;;4856288;29;20049;-86
2022/01/21 04:30:23;;;;;;;19.38;1.98;;;1.60;99.90;;;;;;4856620;29;20081;-86
2022/01/21 04:32:49;;;;;;;14.68;1.30;;;1.60;99.90;;;;;;4840846;29;20086;-85
2022/01/21 04:35:15;;;;;;;9.18;1.20;;;1.50;99.90;;;;;;4859084;29;20107;-86
2022/01/21 04:37:48;;;;;;;15.95;1.35;;;1.40;99.90;;;;;;4860209;29;20427;-85
2022/01/21 04:40:17;;;;;;;12.07;1.23;;;1.30;99.90;;;;;;4860103;29;20518;-85
2022/01/21 04:48:10;;;;;;;12.45;1.80;;;1.10;99.90;;;;;;4859187;29;20057;-85
2022/01/21 04:50:51;;;;;;;23.90;2.42;;;1.00;99.90;;;;;;4859805;29;20064;-85
2022/01/21 04:53:17;;;;;;;15.20;2.00;;;1.00;99.90;;;;;;4859984;29;20128;-85
2022/01/21 04:55:43;;;;;;;21.20;2.00;;;1.00;99.90;;;;;;4859320;29;20145;-85
2022/01/21 04:58:08;;;;;;;26.92;2.15;;;1.00;99.90;;;;;;4860512;29;20060;-85
2022/01/21 05:00:34;;;;;;;24.13;2.47;;;1.10;99.90;;;;;;4859879;29;20052;-85
2022/01/21 05:03:00;;;;;;;21.98;2.55;;;1.20;99.90;;;;;;4859088;29;20141;-85
2022/01/21 05:05:26;;;;;;;21.58;2.40;;;1.30;99.90;;;;;;4859448;29;20519;-85
2022/01/21 05:07:53;;;;;;;22.05;2.47;;;1.30;99.90;;;;;;4860032;29;20061;-86
2022/01/21 05:10:19;;;;;;;22.88;2.40;;;1.40;99.90;;;;;;4859479;29;20040;-86
2022/01/21 05:12:45;;;;;;;22.75;2.63;;;1.40;99.90;;;;;;4859615;29;20375;-85
2022/01/21 05:15:21;;;;;;;25.92;2.53;;;1.40;99.90;;;;;;4859432;29;20052;-84
2022/01/21 05:17:49;;;;;;;23.65;2.47;;;1.40;99.90;;;;;;4858874;29;20041;-85
2022/01/21 05:20:17;;;;;;;21.50;2.33;;;1.40;99.90;;;;;;4843958;29;20072;-84
2022/01/21 05:22:43;;;;;;;25.88;2.25;;;1.50;99.90;;;;;;4858632;29;20048;-85
2022/01/21 05:25:16;;;;;;;20.17;2.25;;;1.60;99.90;;;;;;4871135;29;20049;-86
2022/01/21 05:27:45;;;;;;;19.02;2.25;;;1.60;99.90;;;;;;4870566;29;20056;-85
2022/01/21 05:30:11;;;;;;;21.15;2.65;;;1.70;99.90;;;;;;4877185;29;20100;-85
2022/01/21 05:32:39;;;;;;;29.70;3.42;;;1.70;99.90;;;;;;4877632;29;20427;-85
2022/01/21 05:35:05;;;;;;;25.15;2.53;;;1.70;99.90;;;;;;4878109;29;20464;-84
2022/01/21 05:37:31;;;;;;;26.10;3.05;;;1.70;99.90;;;;;;4892403;29;20072;-84
2022/01/21 05:39:56;;;;;;;17.95;1.80;;;2.80;99.90;;;;;;4877943;29;20044;-84
2022/01/21 05:42:23;;;;;;;17.40;2.13;;;1.80;99.90;;;;;;4877907;29;20062;-84
2022/01/21 05:47:14;;;;;;;20.42;2.17;;;1.80;99.90;;;;;;4877053;29;20528;-84
2022/01/21 05:49:40;;;;;;;18.45;2.17;;;1.80;99.90;;;;;;4862530;29;20044;-84
2022/01/21 05:52:10;;;;;;;13.82;1.90;;;1.80;99.90;;;;;;4877145;29;20068;-84
2022/01/21 05:54:36;;;;;;;15.15;1.85;;;1.90;99.90;;;;;;4878009;29;20064;-84
2022/01/21 05:57:06;;;;;;;15.75;1.77;;;1.90;99.90;;;;;;4861979;29;20045;-84
2022/01/21 05:59:33;;;;;;;17.95;1.95;;;2.00;99.90;;;;;;4876001;29;20048;-86
2022/01/21 06:01:59;;;;;;;19.33;1.67;;;2.00;99.90;;;;;;4858652;29;20048;-84
2022/01/21 06:04:26;;;;;;;20.15;2.30;;;2.00;99.90;;;;;;4858133;29;20160;-85
2022/01/21 06:06:52;;;;;;;16.42;2.40;;;2.10;99.90;;;;;;4858033;29;20418;-85
2022/01/21 06:09:18;;;;;;;18.65;2.50;;;2.10;99.90;;;;;;4843463;29;20052;-85
2022/01/21 06:11:43;;;;;;;18.63;2.45;;;2.10;99.90;;;;;;4858151;29;20080;-85
2022/01/21 06:14:09;;;;;;;18.73;2.15;;;2.10;99.90;;;;;;4843889;29;20469;-85
2022/01/21 06:16:35;;;;;;;19.08;1.98;;;2.00;99.90;;;;;;4858670;29;20560;-84
2022/01/21 06:19:01;;;;;;;14.23;1.98;;;1.90;99.90;;;;;;4858005;29;20056;-84
2022/01/21 06:21:27;;;;;;;13.63;2.35;;;1.90;99.90;;;;;;4858384;29;20805;-85
2022/01/21 06:23:53;;;;;;;18.55;1.98;;;1.90;99.90;;;;;;4858156;29;20041;-84
2022/01/21 06:26:18;;;;;;;19.17;2.00;;;1.90;99.90;;;;;;4857845;29;20076;-85
2022/01/21 06:28:44;;;;;;;19.10;2.33;;;2.20;99.90;;;;;;4858829;29;20056;-85
2022/01/21 06:31:10;;;;;;;20.38;2.42;;;1.80;99.90;;;;;;4842970;29;20121;-85
2022/01/21 06:33:35;;;;;;;20.17;1.70;;;1.80;99.90;;;;;;4842126;29;20064;-83
2022/01/21 06:36:01;;;;;;;21.60;1.80;;;1.80;99.90;;;;;;4857989;29;20109;-84
2022/01/21 06:38:27;;;;;;;19.40;2.58;;;1.80;99.90;;;;;;4858354;29;20056;-84
2022/01/21 06:40:54;;;;;;;17.92;2.13;;;1.80;99.90;;;;;;4845918;29;20049;-84
2022/01/21 06:43:20;;;;;;;10.43;1.55;;;1.90;99.90;;;;;;4881071;29;20618;-85
2022/01/21 06:45:46;;;;;;;16.70;2.00;;;2.00;99.90;;;;;;4876129;29;20048;-84
2022/01/21 06:48:12;;;;;;;20.20;2.92;;;2.10;99.90;;;;;;4874951;29;20071;-84
2022/01/21 06:50:40;;;;;;;11.52;2.15;;;2.10;99.90;;;;;;4876311;29;20049;-84
2022/01/21 06:53:06;;;;;;;16.08;2.38;;;2.10;99.90;;;;;;4861138;29;20123;-84
2022/01/21 06:55:32;;;;;;;20.73;2.75;;;2.20;99.90;;;;;;4875630;29;20056;-84
2022/01/21 06:57:57;;;;;;;15.23;2.25;;;2.70;99.90;;;;;;4861137;29;20045;-84
2022/01/21 07:00:24;;;;;;;17.38;1.95;;;2.80;99.90;;;;;;4875697;29;20048;-85
2022/01/21 07:02:52;;;;;;;19.13;2.10;;;2.10;99.90;;;;;;4859904;29;20545;-85
2022/01/21 07:05:19;;;;;;;19.15;1.85;;;2.00;99.90;;;;;;4875378;29;20044;-84
2022/01/21 07:07:45;;;;;;;19.40;1.90;;;1.90;99.90;;;;;;4875974;29;20052;-85
2022/01/21 07:10:13;;;;;;;20.15;2.25;;;1.90;99.90;;;;;;4876797;29;20048;-85
2022/01/21 07:12:39;;;;;;;20.50;2.30;;;1.80;99.90;;;;;;4876257;29;20048;-84
2022/01/21 07:15:07;;;;;;;12.63;1.48;;;1.70;99.90;;;;;;4875905;29;20493;-85
2022/01/21 07:17:33;;;;;;;14.20;1.83;;;1.70;99.90;;;;;;4880921;29;20051;-85
2022/01/21 07:19:59;;;;;;;20.67;2.17;;;1.70;99.90;;;;;;4874913;29;20048;-83
2022/01/21 07:22:24;;;;;;;19.02;1.90;;;1.60;99.90;;;;;;4856405;29;20406;-83
2022/01/21 07:24:50;;;;;;;23.73;2.38;;;1.60;99.90;;;;;;4857874;29;20052;-86
2022/01/21 07:27:16;;;;;;;12.77;1.98;;;1.50;99.90;;;;;;4841988;29;20113;-86
2022/01/21 07:29:42;;;;;;;18.20;2.03;;;1.50;99.90;;;;;;4866881;29;20036;-86
2022/01/21 07:32:08;;;;;;;17.98;2.88;;;1.50;99.90;;;;;;4859862;29;20044;-85
2022/01/21 07:34:34;;;;;;;26.80;2.75;;;1.50;99.90;;;;;;4860314;29;20552;-85
2022/01/21 07:37:00;;;;;;;15.65;2.10;;;1.50;99.90;;;;;;4874783;29;20155;-85
2022/01/21 07:39:26;;;;;;;17.48;2.88;;;2.50;99.90;;;;;;4875478;29;20048;-85
2022/01/21 07:41:52;;;;;;;26.42;2.97;;;1.70;99.90;;;;;;4882947;29;20099;-85
2022/01/21 07:44:18;;;;;;;22.90;3.15;;;1.70;99.90;;;;;;4858976;29;20576;-86
2022/01/21 07:46:45;;;;;;;25.55;2.92;;;1.80;99.90;;;;;;4860251;29;20068;-85
2022/01/21 07:49:12;;;;;;;26.88;3.22;;;1.80;99.90;;;;;;4875439;29;20095;-86
2022/01/21 07:51:38;;;;;;;25.67;2.80;;;1.80;99.90;;;;;;4874249;29;20051;-87
2022/01/21 07:54:04;;;;;;;24.55;2.63;;;1.90;99.90;;;;;;4876119;29;20040;-86
2022/01/21 07:56:33;;;;;;;25.10;3.10;;;1.80;99.90;;;;;;4860031;29;20059;-86
2022/01/21 07:58:59;;;;;;;24.23;2.33;;;1.90;99.90;;;;;;4859478;29;20040;-86
2022/01/21 08:01:25;;;;;;;17.52;2.75;;;1.80;99.90;;;;;;4874214;29;20056;-86
2022/01/21 08:03:51;;;;;;;31.42;3.70;;;1.90;99.90;;;;;;4860305;29;20036;-86
2022/01/21 08:06:17;;;;;;;32.45;3.58;;;2.80;99.90;;;;;;4858978;29;20059;-86
2022/01/21 08:08:43;;;;;;;33.85;3.78;;;1.80;99.90;;;;;;4875074;29;20052;-85
2022/01/21 08:11:08;;;;;;;26.15;3.35;;;2.40;99.90;;;;;;4860115;29;20044;-85
2022/01/21 08:13:34;;;;;;;28.90;4.15;;;2.00;99.90;;;;;;4875528;29;20075;-85
2022/01/21 08:16:00;;;;;;;22.63;3.08;;;2.00;99.90;;;;;;4875427;29;20155;-86
2022/01/21 08:18:25;;;;;;;30.98;3.28;;;2.20;99.90;;;;;;4874582;29;20048;-86
2022/01/21 08:20:51;;;;;;;27.38;3.15;;;2.20;99.90;;;;;;4875169;29;20044;-86
2022/01/21 08:23:17;;;;;;;17.48;2.65;;;2.10;99.90;;;;;;4859348;29;20053;-86
2022/01/21 08:25:43;;;;;;;26.02;3.47;;;2.00;99.90;;;;;;4859454;29;20040;-86
2022/01/21 08:28:09;;;;;;;32.83;3.35;;;2.20;99.90;;;;;;4874933;29;20036;-86
2022/01/21 08:30:35;;;;;;;36.92;3.13;;;2.10;99.90;;;;;;4859434;29;20052;-86
2022/01/21 08:33:01;;;;;;;26.08;2.80;;;2.10;99.90;;;;;;4840140;29;20037;-86
2022/01/21 08:35:27;;;;;;;33.20;3.67;;;2.00;99.90;;;;;;4855905;29;20537;-86
2022/01/21 08:37:53;;;;;;;19.70;2.30;;;2.00;99.90;;;;;;4856424;29;20049;-86
2022/01/21 08:40:20;;;;;;;24.48;3.00;;;2.60;99.90;;;;;;4839718;29;20485;-86
2022/01/21 08:42:46;;;;;;;25.15;3.08;;;1.90;99.90;;;;;;4856703;29;20045;-86
2022/01/21 08:45:13;;;;;;;30.20;3.80;;;1.90;99.90;;;;;;4856680;29;20060;-87
2022/01/21 08:47:41;;;;;;;30.80;3.47;;;1.90;99.90;;;;;;4840919;29;20057;-87
2022/01/21 08:50:11;;;;;;;25.95;3.08;;;2.00;99.90;;;;;;4856219;29;20503;-86
2022/01/21 08:52:38;;;;;;;23.38;3.15;;;2.00;99.90;;;;;;4840984;29;20540;-86
2022/01/21 08:55:07;;;;;;;22.20;3.42;;;2.10;99.90;;;;;;4855723;29;20094;-86
2022/01/21 08:57:34;;;;;;;25.65;3.65;;;2.20;99.90;;;;;;4856668;29;20061;-87
2022/01/21 09:00:00;;;;;;;31.42;4.65;;;2.30;99.90;;;;;;4841287;29;20064;-87
2022/01/21 09:02:26;;;;;;;26.80;3.47;;;2.40;99.90;;;;;;4839388;29;20045;-87
2022/01/21 09:04:52;;;;;;;32.03;3.70;;;2.50;99.90;;;;;;4841481;29;20045;-87
2022/01/21 09:07:17;;;;;;;32.92;3.45;;;2.70;99.90;;;;;;4839453;29;20163;-87
2022/01/21 09:09:43;;;;;;;18.13;2.90;;;2.80;99.90;;;;;;4843648;29;20051;-88
2022/01/21 09:12:09;;;;;;;30.52;3.88;;;3.20;99.90;;;;;;4841680;29;20383;-87
2022/01/21 09:14:35;;;;;;;25.85;3.90;;;3.00;99.90;;;;;;4840298;29;20649;-88
2022/01/21 09:17:27;;;;;;;34.97;3.20;;;3.40;99.90;;;;;;4842077;29;20048;-88
2022/01/21 09:19:52;;;;;;;34.50;3.53;;;3.50;99.90;;;;;;4858174;29;20053;-88
2022/01/21 09:22:18;;;;;;;26.55;3.00;;;4.80;99.90;;;;;;4858730;29;20140;-87
2022/01/21 09:24:44;;;;;;;33.67;3.35;;;3.30;99.90;;;;;;4859081;29;20448;-87
2022/01/21 09:27:10;;;;;;;26.80;3.55;;;3.40;99.90;;;;;;4859174;29;20520;-87
2022/01/21 09:29:35;;;;;;;31.55;3.80;;;4.10;99.90;;;;;;4843807;29;20149;-88
2022/01/21 09:32:03;;;;;;;26.60;3.38;;;3.50;99.90;;;;;;4844111;29;20052;-88
2022/01/21 09:34:34;;;;;;;24.17;3.70;;;3.60;99.90;;;;;;4844341;29;20085;-87
2022/01/21 09:37:01;;;;;;;21.92;3.50;;;3.50;99.90;;;;;;4842801;29;20059;-88
2022/01/21 09:39:29;;;;;;;31.90;4.22;;;3.70;99.90;;;;;;4860200;29;20092;-89
2022/01/21 09:41:59;;;;;;;23.50;4.63;;;3.70;99.90;;;;;;4862079;29;20565;-88
2022/01/21 09:44:32;;;;;;;30.38;3.75;;;3.40;99.90;;;;;;4844376;29;20072;-88
2022/01/21 09:47:00;;;;;;;;;;;3.60;99.90;;;;;;4844351;29;20053;-88
2022/01/21 09:49:35;;;;;;;29.88;3.28;;;3.70;99.90;;;;;;4845776;29;19924;-88
2022/01/21 09:52:06;;;;;;;28.20;4.25;;;4.10;99.90;;;;;;4844345;29;20107;-87
2022/01/21 09:54:36;;;;;;;28.55;3.75;;;3.80;99.90;;;;;;4844341;29;20223;-87
2022/01/21 09:57:05;;;;;;;29.55;4.13;;;4.40;99.90;;;;;;4874761;29;20064;-88
2022/01/21 09:59:33;;;;;;;31.48;4.43;;;3.90;99.90;;;;;;4883003;29;20056;-89
2022/01/21 10:02:02;;;;;;;28.48;4.18;;;4.40;99.90;;;;;;4862395;29;20144;-89
2022/01/21 10:04:32;;;;;;;38.45;5.30;;;4.50;99.90;;;;;;4860977;29;20048;-88
2022/01/21 10:15:08;;;;;;;21.33;2.63;;;4.10;99.90;;;;;;4821820;29;20094;-92
2022/01/21 10:18:26;;;;;;;28.73;3.42;;;4.20;99.90;;;;;;4796527;29;20734;-90
2022/01/21 10:20:57;;;;;;;31.08;3.00;;;3.60;99.90;;;;;;4817581;29;20060;-89
2022/01/21 10:23:24;;;;;;;37.35;4.32;;;5.50;99.90;;;;;;4861645;29;20052;-88
2022/01/21 10:26:01;;;;;;;38.75;3.90;;;5.50;99.90;;;;;;4877659;29;20102;-88
2022/01/21 10:28:27;;;;;;;41.03;3.92;;;5.40;99.90;;;;;;4862338;29;20052;-89
2022/01/21 10:31:13;;;;;;;26.35;3.53;;;5.30;99.90;;;;;;4862603;29;20056;-89
2022/01/21 10:33:54;;;;;;;25.25;3.20;;;4.90;99.90;;;;;;4877587;29;20136;-89
2022/01/21 10:36:34;;;;;;;32.75;3.85;;;4.80;99.90;;;;;;4877815;29;20269;-89
2022/01/21 10:39:11;;;;;;;26.17;3.17;;;5.70;99.90;;;;;;4873606;29;20049;-88
2022/01/21 10:41:42;;;;;;;24.15;3.10;;;5.60;99.90;;;;;;4860538;29;20052;-90
2022/01/21 10:44:12;;;;;;;27.60;3.42;;;6.30;99.90;;;;;;4852602;29;20048;-89
2022/01/21 10:46:42;;;;;;;33.53;3.42;;;5.20;99.90;;;;;;4864671;29;20472;-89
2022/01/21 10:49:10;;;;;;;20.55;2.97;;;6.30;99.90;;;;;;4882693;29;20048;-89
2022/01/21 10:51:39;;;;;;;31.05;3.20;;;5.30;99.90;;;;;;4862586;29;20109;-89
2022/01/21 10:54:15;;;;;;;21.38;2.83;;;5.30;99.90;;;;;;4864898;29;20045;-88
2022/01/21 10:57:03;;;;;;;25.90;3.30;;;5.40;99.90;;;;;;4865089;29;20059;-89
2022/01/21 10:59:48;;;;;;;20.05;2.05;;;5.50;99.90;;;;;;4866388;29;20045;-90
2022/01/21 11:02:14;;;;;;;25.42;5.18;;;5.50;99.90;;;;;;4867623;29;20051;-90
2022/01/21 11:04:42;;;;;;;23.50;2.65;;;6.40;99.90;;;;;;4901337;29;20048;-90
2022/01/21 11:07:08;;;;;;;23.30;3.00;;;5.70;99.90;;;;;;4859657;29;20063;-88
2022/01/21 11:09:37;;;;;;;25.92;2.50;;;5.70;99.90;;;;;;4861312;29;20119;-90
2022/01/21 11:12:11;;;;;;;34.80;3.55;;;6.60;99.90;;;;;;4861218;29;20580;-88
2022/01/21 11:15:02;;;;;;;23.80;3.92;;;5.30;99.90;;;;;;4873481;29;20500;-89
2022/01/21 11:17:28;;;;;;;33.92;4.45;;;5.70;99.90;;;;;;4876010;29;20084;-89
2022/01/21 11:20:48;;;;;;;29.42;3.08;;;5.80;99.90;;;;;;4877788;29;20040;-95
2022/01/21 11:23:37;;;;;;;29.92;3.05;;;6.00;99.90;;;;;;4852049;29;20067;-94
2022/01/21 11:26:08;;;;;;;21.77;2.33;;;6.80;99.90;;;;;;4860812;29;20047;-88
2022/01/21 11:28:45;;;;;;;22.27;3.38;;;6.90;99.90;;;;;;4877776;29;20048;-89
2022/01/21 11:31:11;;;;;;;24.80;3.22;;;6.20;99.90;;;;;;4874954;29;20040;-81
2022/01/21 11:33:37;;;;;;;20.67;2.40;;;6.40;99.90;;;;;;4873651;29;20108;-79
2022/01/21 11:36:05;;;;;;;16.08;2.50;;;6.50;99.90;;;;;;4891961;29;20454;-85
2022/01/21 11:38:35;;;;;;;17.42;2.83;;;6.60;99.90;;;;;;4861655;29;20048;-82
2022/01/21 11:41:04;;;;;;;12.98;2.33;;;6.60;99.90;;;;;;4875964;29;20048;-83
2022/01/21 11:43:35;;;;;;;16.00;2.13;;;6.60;99.90;;;;;;4875505;29;20040;-85
2022/01/21 11:46:18;;;;;;;22.17;2.35;;;6.60;99.90;;;;;;4860450;29;20048;-83
2022/01/21 11:48:53;;;;;;;21.65;2.30;;;6.80;99.90;;;;;;4859862;29;20135;-84
2022/01/21 11:51:20;;;;;;;21.13;2.40;;;6.60;99.90;;;;;;4874096;29;20071;-83
2022/01/21 11:53:50;;;;;;;15.52;2.15;;;6.50;99.90;;;;;;4876208;29;20049;-90
2022/01/21 11:56:49;;;;;;;13.85;2.15;;;6.50;99.90;;;;;;4860730;29;20052;-91
2022/01/21 11:59:41;;;;;;;21.95;2.53;;;6.60;99.90;;;;;;4860923;29;20053;-90
2022/01/21 12:02:36;;;;;;;19.35;2.42;;;6.50;99.90;;;;;;4843185;29;20056;-89
2022/01/21 12:05:12;;;;;;;22.38;2.85;;;6.50;99.90;;;;;;4857990;29;20044;-90
2022/01/21 12:07:49;;;;;;;25.38;2.22;;;6.40;99.90;;;;;;4858482;29;20481;-91
2022/01/21 12:10:25;;;;;;;18.33;2.03;;;7.40;99.90;;;;;;4857735;29;20129;-91
2022/01/21 12:13:01;;;;;;;10.95;2.28;;;7.20;99.90;;;;;;4859615;29;20060;-90
2022/01/21 12:15:35;;;;;;;18.05;2.25;;;6.80;99.90;;;;;;4858099;29;20088;-89
2022/01/21 12:18:30;;;;;;;18.40;2.72;;;6.00;99.90;;;;;;4858867;29;20089;-90
2022/01/21 12:21:02;;;;;;;16.80;2.78;;;6.60;99.90;;;;;;4858180;29;20072;-91
2022/01/21 12:23:30;;;;;;;19.98;2.15;;;6.20;99.90;;;;;;4862089;29;20083;-89
2022/01/21 12:26:32;;;;;;;15.85;2.38;;;6.60;99.90;;;;;;4861342;29;20070;-92
2022/01/21 12:28:58;;;;;;;13.63;1.80;;;7.10;99.90;;;;;;4863433;29;20052;-91
2022/01/21 12:31:45;;;;;;;17.45;1.80;;;7.40;99.90;;;;;;4861010;29;20051;-91
2022/01/21 12:34:16;;;;;;;29.10;2.25;;;6.10;99.90;;;;;;4862366;29;20079;-92
2022/01/21 12:37:52;;;;;;;20.42;2.15;;;7.40;99.90;;;;;;4862451;29;20048;-91
2022/01/21 12:39:49;;;;;;;21.08;2.45;;;6.60;99.90;;;;;;4865532;29;20116;-91
2022/01/21 12:42:21;;;;;;;12.85;1.77;;;6.40;99.90;;;;;;4862021;29;20045;-90
2022/01/21 12:45:07;;;;;;;22.63;2.30;;;7.30;99.90;;;;;;4861628;29;20416;-90
2022/01/21 12:47:51;;;;;;;;;;;;;;;;;;;;;
2022/01/21 12:50:59;;;;;;;;;;;;;;;;;;;;;
2022/01/21 12:53:54;;;;;;;;;;;;;;;;;;;;;
2022/01/21 12:56:59;;;;;;;22.52;2.78;;;7.50;99.90;;;;;;4862340;29;20052;-91
2022/01/21 13:00:08;;;;;;;26.33;3.03;;;6.10;99.90;;;;;;4859475;29;20065;-91
2022/01/21 13:03:41;;;;;;;22.13;3.20;;;6.40;99.90;;;;;;4862082;29;20143;-91
2022/01/21 13:06:58;;;;;;;23.92;2.80;;;6.50;99.90;;;;;;4849746;29;20493;-91
2022/01/21 13:10:57;;;;;;;22.73;2.75;;;7.00;99.90;;;;;;4863462;29;20084;-91
2022/01/21 13:16:02;;;;;;;17.30;2.80;;;6.90;99.90;;;;;;4861685;29;20351;-89
2022/01/21 13:18:52;;;;;;;22.20;2.72;;;6.50;99.90;;;;;;4855814;29;20056;-90
2022/01/21 13:21:20;;;;;;;21.05;2.45;;;6.30;99.90;;;;;;4859918;29;20089;-90
2022/01/21 13:23:59;;;;;;;24.35;2.85;;;6.50;99.90;;;;;;4863862;29;20417;-94
2022/01/21 13:26:53;;;;;;;30.25;2.78;;;6.50;99.90;;;;;;4862498;29;20391;-91
2022/01/21 13:29:19;;;;;;;18.67;2.97;;;6.50;99.90;;;;;;4860653;29;20455;-90
2022/01/21 13:31:48;;;;;;;23.35;2.97;;;6.50;99.90;;;;;;4859959;29;20413;-90
2022/01/21 13:34:30;;;;;;;23.55;3.08;;;6.50;99.90;;;;;;4864090;29;20036;-91
2022/01/21 13:36:59;;;;;;;17.40;2.33;;;6.50;99.90;;;;;;4859748;29;20045;-87
2022/01/21 13:39:31;;;;;;;23.67;3.17;;;6.50;99.90;;;;;;4845477;29;20049;-90
2022/01/21 13:42:14;;;;;;;19.92;3.47;;;6.50;99.90;;;;;;4859775;29;20633;-91
2022/01/21 13:44:51;;;;;;;21.50;2.70;;;6.40;99.90;;;;;;4859986;29;20096;-91
2022/01/21 13:47:36;;;;;;;35.40;3.28;;;6.30;99.90;;;;;;4859076;29;20063;-85
2022/01/21 13:50:06;;;;;;;30.38;4.55;;;6.20;99.90;;;;;;4860853;29;20064;-88
2022/01/21 13:52:34;;;;;;;23.40;3.28;;;6.20;99.90;;;;;;4860204;29;20053;-88
2022/01/21 13:55:00;;;;;;;32.97;4.10;;;6.30;99.90;;;;;;4859605;29;20132;-88
2022/01/21 13:57:27;;;;;;;22.35;2.50;;;6.70;99.90;;;;;;4858386;29;20452;-91
2022/01/21 13:59:53;;;;;;;28.02;3.08;;;6.50;99.90;;;;;;4859372;29;20106;-87
2022/01/21 14:02:19;;;;;;;26.40;2.72;;;6.40;99.90;;;;;;4858608;29;20081;-88
2022/01/21 14:04:54;;;;;;;19.85;3.08;;;6.50;99.90;;;;;;4843418;29;20451;-88
2022/01/21 14:07:22;;;;;;;17.63;3.50;;;6.40;99.90;;;;;;4858357;29;20060;-88